Time;durP1;ratioP1;P1;durP2;ratioP2;P2;SDS_P1;SDS_P2;PMS_P1;PMS_P2;Temp;Humidity;BMP_temperature;BMP_pressure;BME280_temperature;BME280_humidity;BME280_pressure;Samples;Min_cycle;Max_cycle;Signal;HPM_P1;HPM_P2
2022/10/07 02:12:43;;;;;;;9.03;4.10;;;6.60;1.00;;;;;;6205590;22;20365;-86
2022/10/07 02:15:51;;;;;;;12.97;3.50;;;6.70;99.90;;;;;;6206033;23;20169;-88
2022/10/07 02:18:27;;;;;;;8.47;3.73;;;7.80;99.90;;;;;;6179458;23;20166;-88
2022/10/07 02:21:05;;;;;;;11.57;3.57;;;6.20;99.90;;;;;;6178432;23;20209;-89
2022/10/07 02:23:46;;;;;;;9.17;3.60;;;6.60;1.00;;;;;;6153669;23;20182;-88
2022/10/07 02:26:18;;;;;;;5.53;3.30;;;6.20;99.90;;;;;;6178627;23;20219;-90
2022/10/07 02:28:56;;;;;;;5.47;3.30;;;7.30;1.00;;;;;;6151610;23;20190;-90
2022/10/07 02:31:29;;;;;;;7.97;4.03;;;6.60;1.00;;;;;;6178761;23;20154;-90
2022/10/07 02:33:57;;;;;;;9.73;4.20;;;6.50;99.90;;;;;;6178712;23;20200;-91
2022/10/07 02:37:19;;;;;;;7.57;4.50;;;6.90;99.90;;;;;;6206094;23;20139;-90
2022/10/07 02:40:36;;;;;;;7.03;3.40;;;6.10;99.90;;;;;;6159300;23;20162;-88
2022/10/07 03:04:41;;;;;;;6.17;3.17;;;6.90;1.00;;;;;;6083654;23;20195;-90
2022/10/07 03:41:03;;;;;;;;;;;;;;;;;;;;;
2022/10/07 06:24:17;;;;;;;;;;;;;;;;;;;;;
2022/10/07 08:14:21;;;;;;;4.70;1.97;;;11.00;1.00;;;;;;6206577;22;20240;-89
2022/10/07 08:16:48;;;;;;;4.73;2.00;;;11.30;1.00;;;;;;6183495;23;20185;-80
2022/10/07 08:19:14;;;;;;;6.17;1.90;;;11.20;1.00;;;;;;6210089;23;20186;-77
2022/10/07 08:21:39;;;;;;;5.87;1.90;;;11.70;1.00;;;;;;6206390;23;20162;-79
2022/10/07 08:24:07;;;;;;;5.83;2.00;;;11.50;1.00;;;;;;6211460;23;20178;-79
2022/10/07 08:26:34;;;;;;;9.20;2.13;;;11.60;1.00;;;;;;6210639;23;20154;-80
2022/10/07 08:29:00;;;;;;;9.23;2.10;;;11.70;1.00;;;;;;6209000;23;20252;-79
2022/10/07 08:31:27;;;;;;;5.38;1.50;;;11.80;1.00;;;;;;6181017;23;20200;-80
2022/10/07 08:33:54;;;;;;;6.30;1.70;;;12.00;1.00;;;;;;6206753;23;20601;-80
2022/10/07 08:36:21;;;;;;;4.78;2.03;;;12.00;1.00;;;;;;6179483;23;20214;-80
2022/10/07 08:38:48;;;;;;;6.85;2.03;;;12.10;1.00;;;;;;6206543;23;20208;-78
2022/10/07 08:41:41;;;;;;;7.47;1.90;;;12.20;1.00;;;;;;6207783;23;20158;-78
2022/10/07 08:44:12;;;;;;;5.32;1.67;;;12.30;1.00;;;;;;6207637;23;20192;-78
2022/10/07 08:46:45;;;;;;;6.03;1.67;;;12.50;1.00;;;;;;6206212;23;20594;-78
2022/10/07 08:49:20;;;;;;;6.93;1.88;;;12.60;1.00;;;;;;6205999;23;20190;-81
2022/10/07 08:51:56;;;;;;;6.68;2.03;;;12.80;1.00;;;;;;6178371;23;20161;-79
2022/10/07 08:54:27;;;;;;;5.05;1.90;;;12.90;1.00;;;;;;6204862;23;20141;-80
2022/10/07 08:56:57;;;;;;;5.30;1.75;;;13.00;1.00;;;;;;6205476;23;20515;-79
2022/10/07 08:59:29;;;;;;;3.05;1.35;;;12.90;1.00;;;;;;6204915;23;20582;-80
2022/10/07 09:02:16;;;;;;;7.50;1.98;;;12.80;1.00;;;;;;6178197;23;20154;-79
2022/10/07 09:05:06;;;;;;;4.72;1.65;;;13.00;1.00;;;;;;6177896;23;20170;-79
2022/10/07 09:07:46;;;;;;;5.03;1.40;;;13.10;1.00;;;;;;6204811;23;20591;-81
2022/10/07 09:10:35;;;;;;;5.13;1.25;;;13.30;1.00;;;;;;6204417;23;20174;-80
2022/10/07 09:13:14;;;;;;;5.30;1.30;;;13.50;1.00;;;;;;6204607;23;20189;-80
2022/10/07 09:16:10;;;;;;;3.92;1.00;;;13.50;1.00;;;;;;6177844;23;20158;-79
2022/10/07 09:18:40;;;;;;;3.40;1.33;;;13.40;1.00;;;;;;6204017;23;20162;-79
2022/10/07 09:21:18;;;;;;;4.53;1.30;;;13.50;1.00;;;;;;6178549;23;20197;-80
2022/10/07 09:23:45;;;;;;;4.72;1.48;;;13.50;1.00;;;;;;6204733;23;20205;-80
2022/10/07 09:26:12;;;;;;;4.75;1.27;;;13.60;1.00;;;;;;6177337;23;20214;-80
2022/10/07 09:28:38;;;;;;;4.97;1.58;;;13.70;1.00;;;;;;6205267;23;20212;-80
2022/10/07 09:31:04;;;;;;;3.95;1.58;;;13.90;1.00;;;;;;6204804;23;20161;-79
2022/10/07 09:33:40;;;;;;;2.70;1.10;;;14.00;1.00;;;;;;6204588;23;20637;-79
2022/10/07 09:36:09;;;;;;;4.90;1.33;;;14.10;1.00;;;;;;6178900;23;20237;-80
2022/10/07 09:38:41;;;;;;;7.10;1.58;;;14.10;1.00;;;;;;6204377;23;20276;-79
2022/10/07 09:41:16;;;;;;;3.65;1.33;;;14.20;1.00;;;;;;6205044;23;20150;-81
2022/10/07 09:43:53;;;;;;;3.60;1.27;;;14.20;1.00;;;;;;6178787;23;20195;-81
2022/10/07 09:46:41;;;;;;;6.07;1.80;;;14.30;1.00;;;;;;6180033;23;20372;-79
2022/10/07 09:49:25;;;;;;;8.48;1.75;;;14.30;1.00;;;;;;6204956;23;20221;-78
2022/10/07 09:52:17;;;;;;;6.70;1.52;;;14.30;1.00;;;;;;6177112;23;20161;-80
2022/10/07 09:54:45;;;;;;;3.35;0.93;;;14.40;1.00;;;;;;6204747;23;20213;-79
2022/10/07 09:57:32;;;;;;;3.03;1.30;;;14.50;1.00;;;;;;6178969;23;20158;-79
2022/10/07 10:00:22;;;;;;;4.50;1.30;;;14.40;1.00;;;;;;6204534;23;20139;-80
2022/10/07 10:03:07;;;;;;;6.05;1.38;;;14.60;1.00;;;;;;6177239;23;20646;-80
2022/10/07 10:05:58;;;;;;;4.90;1.30;;;14.70;1.00;;;;;;6203423;23;20556;-80
2022/10/07 10:08:36;;;;;;;5.20;1.38;;;14.90;1.00;;;;;;6204395;23;20139;-78
2022/10/07 10:11:27;;;;;;;4.65;1.35;;;14.80;1.00;;;;;;6177996;23;20207;-80
2022/10/07 10:13:53;;;;;;;4.20;1.10;;;14.80;1.00;;;;;;6204096;23;20265;-81
2022/10/07 10:16:33;;;;;;;6.57;1.38;;;14.90;1.00;;;;;;6177646;23;20652;-81
2022/10/07 10:19:01;;;;;;;3.15;1.00;;;14.90;1.00;;;;;;6204411;23;20878;-81
2022/10/07 10:21:38;;;;;;;4.38;1.70;;;14.90;1.00;;;;;;6177985;23;20171;-81
2022/10/07 10:24:09;;;;;;;5.80;1.90;;;15.00;1.00;;;;;;6204631;23;20173;-79
2022/10/07 10:26:54;;;;;;;6.07;1.30;;;15.00;1.00;;;;;;6204616;23;20587;-79
2022/10/07 10:29:23;;;;;;;8.50;2.80;;;15.00;1.00;;;;;;6204428;23;20171;-80
2022/10/07 10:32:01;;;;;;;5.78;1.63;;;15.10;1.00;;;;;;6177133;23;20150;-79
2022/10/07 10:34:41;;;;;;;5.35;2.15;;;15.10;1.00;;;;;;6177627;23;20985;-78
2022/10/07 10:37:19;;;;;;;6.80;1.67;;;15.10;1.00;;;;;;6175658;23;20428;-79
2022/10/07 10:39:58;;;;;;;6.55;1.92;;;15.20;1.00;;;;;;6204233;23;20597;-78
2022/10/07 10:43:05;;;;;;;6.97;2.45;;;15.40;1.00;;;;;;6176220;23;20269;-80
2022/10/07 10:45:43;;;;;;;9.43;2.60;;;15.40;1.00;;;;;;6143933;23;20172;-79
2022/10/07 10:48:36;;;;;;;5.22;1.83;;;15.30;1.00;;;;;;6203267;23;20579;-79
2022/10/07 10:51:30;;;;;;;8.25;4.22;;;15.30;1.00;;;;;;6177020;23;20233;-79
2022/10/07 10:54:04;;;;;;;6.38;3.50;;;15.30;1.00;;;;;;6203250;23;20197;-79
2022/10/07 10:56:39;;;;;;;7.97;2.53;;;15.40;1.00;;;;;;6174037;23;20182;-81
2022/10/07 10:59:32;;;;;;;3.92;1.30;;;15.40;1.00;;;;;;6204994;23;20152;-80
2022/10/07 11:02:13;;;;;;;7.30;3.03;;;15.40;1.00;;;;;;6178029;23;20162;-81
2022/10/07 11:04:54;;;;;;;11.02;3.80;;;15.50;1.00;;;;;;6173726;23;20165;-79
2022/10/07 11:07:46;;;;;;;9.25;3.20;;;15.50;1.00;;;;;;6197258;23;20177;-78
2022/10/07 11:10:22;;;;;;;10.20;3.78;;;15.60;1.00;;;;;;6202735;23;20598;-80
2022/10/07 11:12:57;;;;;;;6.78;2.67;;;15.70;1.00;;;;;;6183539;23;20193;-77
2022/10/07 11:15:45;;;;;;;5.85;2.08;;;15.70;1.00;;;;;;6210736;23;20138;-78
2022/10/07 11:18:28;;;;;;;7.53;1.63;;;15.70;1.00;;;;;;6205202;23;20138;-79
2022/10/07 11:20:58;;;;;;;4.32;1.45;;;15.70;1.00;;;;;;6201708;23;20164;-78
2022/10/07 11:23:34;;;;;;;4.57;1.52;;;15.70;1.00;;;;;;6199692;23;20175;-78
2022/10/07 11:26:21;;;;;;;6.28;2.17;;;15.60;1.00;;;;;;6204043;23;20138;-78
2022/10/07 11:28:49;;;;;;;9.77;2.72;;;15.50;1.00;;;;;;6204057;23;20204;-78
2022/10/07 11:31:27;;;;;;;10.30;3.40;;;15.50;1.00;;;;;;6202171;23;20162;-78
2022/10/07 11:34:12;;;;;;;9.30;4.00;;;15.50;1.00;;;;;;6205281;23;20177;-78
2022/10/07 11:37:08;;;;;;;6.28;1.80;;;15.70;1.00;;;;;;6205325;23;20173;-78
2022/10/07 11:39:38;;;;;;;9.63;3.65;;;15.60;1.00;;;;;;6203584;23;20189;-78
2022/10/07 11:42:15;;;;;;;9.20;2.58;;;15.60;1.00;;;;;;6207462;23;20685;-78
2022/10/07 11:44:54;;;;;;;10.70;4.95;;;15.60;1.00;;;;;;6206871;23;20590;-78
2022/10/07 11:47:24;;;;;;;12.80;5.25;;;15.60;1.00;;;;;;6208196;23;20241;-78
2022/10/07 11:50:15;;;;;;;9.82;4.15;;;15.80;1.00;;;;;;6207431;23;20216;-78
2022/10/07 11:52:45;;;;;;;10.05;5.00;;;15.80;1.00;;;;;;6189501;23;20181;-78
2022/10/07 11:55:33;;;;;;;6.13;2.33;;;15.80;1.00;;;;;;6199978;23;20154;-78
2022/10/07 11:58:02;;;;;;;6.43;3.08;;;15.80;1.00;;;;;;6207230;23;20181;-78
2022/10/07 12:00:34;;;;;;;9.52;3.42;;;15.80;1.00;;;;;;6206359;23;20262;-78
2022/10/07 12:03:32;;;;;;;6.82;1.77;;;15.90;1.00;;;;;;6205857;23;20173;-78
2022/10/07 12:06:06;;;;;;;7.00;2.38;;;16.00;1.00;;;;;;6205801;23;20169;-78
2022/10/07 12:08:40;;;;;;;9.77;2.78;;;16.10;1.00;;;;;;6206190;23;20173;-78
2022/10/07 12:11:35;;;;;;;6.80;2.45;;;16.10;1.00;;;;;;6205919;23;20607;-78
2022/10/07 12:14:22;;;;;;;4.70;1.90;;;16.10;1.00;;;;;;6191435;23;20521;-78
2022/10/07 12:16:54;;;;;;;5.18;1.50;;;16.10;1.00;;;;;;6207279;23;20185;-79
2022/10/07 12:19:20;;;;;;;6.10;1.70;;;16.10;1.00;;;;;;6179803;23;20168;-78
2022/10/07 12:22:04;;;;;;;5.70;1.55;;;16.10;1.00;;;;;;6178221;23;20236;-79
2022/10/07 12:24:31;;;;;;;5.35;1.40;;;16.10;1.00;;;;;;6205601;23;20468;-78
2022/10/07 12:27:17;;;;;;;3.75;1.23;;;16.00;1.00;;;;;;6205164;23;20149;-78
2022/10/07 12:30:03;;;;;;;3.40;1.05;;;16.10;1.00;;;;;;6206290;23;20213;-78
2022/10/07 12:32:55;;;;;;;5.07;1.42;;;16.00;1.00;;;;;;6205251;23;20201;-78
2022/10/07 12:35:42;;;;;;;5.85;1.38;;;16.00;1.00;;;;;;6179168;23;20201;-78
2022/10/07 12:38:29;;;;;;;5.80;1.17;;;16.00;1.00;;;;;;6206269;23;20619;-78
2022/10/07 12:41:09;;;;;;;4.63;1.38;;;16.10;1.00;;;;;;6208367;23;20138;-78
2022/10/07 12:43:35;;;;;;;4.60;1.30;;;16.10;1.00;;;;;;6207883;23;20671;-78
2022/10/07 12:46:05;;;;;;;4.80;1.30;;;16.10;1.00;;;;;;6205729;23;20217;-78
2022/10/07 12:48:41;;;;;;;2.72;1.20;;;16.00;1.00;;;;;;6206444;23;20244;-77
2022/10/07 12:51:18;;;;;;;4.65;1.17;;;16.00;1.00;;;;;;6207047;23;20342;-80
2022/10/07 12:53:46;;;;;;;3.72;1.10;;;16.10;1.00;;;;;;6178616;23;20810;-79
2022/10/07 12:56:20;;;;;;;5.82;1.27;;;16.10;1.00;;;;;;6204281;23;20502;-78
2022/10/07 13:02:11;;;;;;;4.80;1.42;;;16.20;1.00;;;;;;6202231;23;20188;-78
2022/10/07 13:04:55;;;;;;;5.18;1.27;;;16.30;1.00;;;;;;6205205;23;20213;-79
2022/10/07 13:07:33;;;;;;;5.05;1.15;;;16.30;1.00;;;;;;6177689;23;20158;-79
2022/10/07 13:10:06;;;;;;;3.85;1.00;;;16.40;1.00;;;;;;6203421;23;20189;-79
2022/10/07 13:12:34;;;;;;;5.05;1.10;;;16.40;1.00;;;;;;6199883;23;20182;-79
2022/10/07 13:15:09;;;;;;;6.05;1.45;;;16.40;1.00;;;;;;6206279;23;20150;-80
2022/10/07 13:17:38;;;;;;;6.32;1.33;;;16.50;1.00;;;;;;6207965;23;20131;-82
2022/10/07 13:20:32;;;;;;;9.10;1.75;;;16.40;1.00;;;;;;6181213;23;20166;-79
2022/10/07 13:23:12;;;;;;;5.47;1.38;;;16.40;1.00;;;;;;6177328;23;20190;-80
2022/10/07 13:25:50;;;;;;;9.68;1.48;;;16.40;1.00;;;;;;6203943;23;20146;-81
2022/10/07 13:28:21;;;;;;;8.07;1.27;;;16.50;1.00;;;;;;6179498;23;20549;-81
2022/10/07 13:30:46;;;;;;;4.28;1.30;;;16.40;1.00;;;;;;6205116;23;20514;-80
2022/10/07 13:33:16;;;;;;;5.68;1.48;;;16.50;1.00;;;;;;6195499;23;20360;-81
2022/10/07 13:35:41;;;;;;;5.65;1.20;;;16.40;1.00;;;;;;6178066;23;20181;-80
2022/10/07 13:38:34;;;;;;;7.50;1.08;;;16.60;1.00;;;;;;6177020;23;20190;-81
2022/10/07 13:41:19;;;;;;;3.72;1.05;;;16.70;1.00;;;;;;6197820;23;20241;-81
2022/10/07 13:43:46;;;;;;;5.47;1.13;;;16.70;1.00;;;;;;6203926;23;20435;-82
2022/10/07 13:46:13;;;;;;;4.90;1.13;;;16.70;1.00;;;;;;6204261;23;20186;-80
2022/10/07 13:48:43;;;;;;;5.32;1.40;;;16.60;1.00;;;;;;6204352;23;20188;-83
2022/10/07 13:51:25;;;;;;;3.88;1.15;;;16.60;1.00;;;;;;6177912;23;20154;-80
2022/10/07 13:53:54;;;;;;;4.07;0.95;;;16.60;1.00;;;;;;6177408;23;20174;-80
2022/10/07 13:56:35;;;;;;;4.03;1.15;;;16.60;1.00;;;;;;6177392;23;20164;-81
2022/10/07 13:59:02;;;;;;;4.38;1.38;;;16.60;1.00;;;;;;6177393;23;20701;-81
2022/10/07 14:01:30;;;;;;;5.72;1.25;;;16.60;1.00;;;;;;6203695;23;20649;-81
2022/10/07 14:04:27;;;;;;;2.72;1.10;;;16.60;1.00;;;;;;6176968;23;20209;-81
2022/10/07 14:07:11;;;;;;;4.75;1.17;;;16.60;1.00;;;;;;6201574;23;20162;-80
2022/10/07 14:09:36;;;;;;;7.63;1.42;;;16.60;1.00;;;;;;6177922;23;20224;-80
2022/10/07 14:12:33;;;;;;;5.20;1.40;;;16.60;1.00;;;;;;6204407;23;20225;-78
2022/10/07 14:15:12;;;;;;;4.20;1.25;;;16.70;1.00;;;;;;6191099;23;20177;-81
2022/10/07 14:17:38;;;;;;;4.47;1.20;;;16.70;1.00;;;;;;6177363;23;20182;-80
2022/10/07 14:20:16;;;;;;;4.70;1.33;;;16.60;1.00;;;;;;6180156;23;20154;-79
2022/10/07 14:22:46;;;;;;;4.43;1.40;;;16.60;1.00;;;;;;6208217;23;20564;-79
2022/10/07 14:25:30;;;;;;;3.83;1.30;;;16.70;1.00;;;;;;6182321;23;20229;-80
2022/10/07 14:28:06;;;;;;;5.15;1.30;;;16.60;1.00;;;;;;6181623;23;20150;-80
2022/10/07 14:36:34;;;;;;;3.70;1.02;;;16.60;1.00;;;;;;6212661;23;20200;-80
2022/10/07 14:39:29;;;;;;;3.00;1.15;;;16.60;1.00;;;;;;6181587;23;20668;-81
2022/10/07 14:41:54;;;;;;;5.88;1.42;;;16.60;1.00;;;;;;6179015;23;20162;-81
2022/10/07 14:44:21;;;;;;;6.28;1.05;;;16.60;1.00;;;;;;6205689;23;20660;-79
2022/10/07 14:46:47;;;;;;;3.55;1.25;;;16.50;1.00;;;;;;6178111;23;20170;-80
2022/10/07 14:49:12;;;;;;;4.22;1.33;;;16.50;1.00;;;;;;6177459;23;20190;-80
2022/10/07 14:51:42;;;;;;;5.43;1.48;;;16.50;1.00;;;;;;6204592;23;20154;-79
2022/10/07 14:54:10;;;;;;;3.15;1.13;;;16.50;1.00;;;;;;6204776;23;20559;-80
2022/10/07 14:56:35;;;;;;;3.90;1.00;;;16.50;1.00;;;;;;6177599;23;20503;-80
2022/10/07 14:59:01;;;;;;;5.65;1.50;;;16.50;1.00;;;;;;6204962;23;20155;-81
2022/10/07 15:01:28;;;;;;;4.93;1.80;;;16.50;1.00;;;;;;6177852;23;20166;-80
2022/10/07 15:03:57;;;;;;;4.38;1.27;;;16.30;1.00;;;;;;6177485;23;20470;-79
2022/10/07 15:06:23;;;;;;;4.05;1.58;;;16.30;1.00;;;;;;6204217;23;20182;-80
2022/10/07 15:08:49;;;;;;;12.02;4.43;;;16.20;1.00;;;;;;6177985;23;20190;-79
2022/10/07 15:11:17;;;;;;;15.25;7.82;;;16.10;1.00;;;;;;6203810;23;20559;-79
2022/10/07 15:13:46;;;;;;;12.50;6.50;;;16.10;1.00;;;;;;6203972;23;20186;-79
2022/10/07 15:16:15;;;;;;;15.98;7.15;;;16.10;1.00;;;;;;6177362;23;20158;-80
2022/10/07 15:18:41;;;;;;;10.00;4.82;;;16.00;1.00;;;;;;6204629;23;20237;-80
2022/10/07 15:21:07;;;;;;;21.25;10.90;;;15.90;1.00;;;;;;6204255;23;20681;-79
2022/10/07 15:23:33;;;;;;;19.88;9.43;;;15.90;1.00;;;;;;6204731;23;20262;-81
2022/10/07 15:25:59;;;;;;;17.27;9.18;;;15.80;1.00;;;;;;6177006;23;20696;-79
2022/10/07 15:28:25;;;;;;;26.02;13.68;;;15.80;1.00;;;;;;6204258;23;20929;-79
2022/10/07 15:30:52;;;;;;;22.65;12.05;;;15.80;1.00;;;;;;6204278;23;20150;-80
2022/10/07 15:33:17;;;;;;;17.15;11.15;;;15.70;1.00;;;;;;6176977;23;20519;-80
2022/10/07 15:35:43;;;;;;;16.60;9.48;;;15.60;1.00;;;;;;6204447;23;20150;-81
2022/10/07 15:38:09;;;;;;;14.10;8.10;;;15.50;1.00;;;;;;6208113;23;20146;-81
2022/10/07 15:40:51;;;;;;;16.60;8.68;;;15.50;1.00;;;;;;6179178;23;20550;-79
2022/10/07 15:43:16;;;;;;;15.88;9.38;;;15.40;1.00;;;;;;6177169;23;20464;-79
2022/10/07 15:45:44;;;;;;;16.20;8.85;;;15.20;1.00;;;;;;6177231;23;20158;-79
2022/10/07 15:48:10;;;;;;;14.45;7.90;;;15.20;1.00;;;;;;6177426;23;20166;-80
2022/10/07 15:50:35;;;;;;;11.60;7.38;;;15.10;1.00;;;;;;6177437;23;20702;-79
2022/10/07 15:53:01;;;;;;;12.23;6.57;;;14.90;1.00;;;;;;6177510;23;20559;-79
2022/10/07 15:55:27;;;;;;;7.88;4.70;;;14.80;1.00;;;;;;6178621;23;20162;-79
2022/10/07 15:57:52;;;;;;;6.65;3.95;;;14.70;1.00;;;;;;6177726;23;20501;-79
2022/10/07 16:00:20;;;;;;;6.75;5.13;;;14.70;1.00;;;;;;6178211;23;20212;-79
2022/10/07 16:02:46;;;;;;;7.13;3.90;;;14.50;1.00;;;;;;6204096;23;20201;-80
2022/10/07 16:05:11;;;;;;;6.15;2.97;;;14.50;1.00;;;;;;6177301;23;20507;-79
2022/10/07 16:07:37;;;;;;;4.20;2.67;;;14.30;1.00;;;;;;6204656;23;20394;-79
2022/10/07 16:10:03;;;;;;;5.20;2.72;;;14.20;1.00;;;;;;6178104;23;20197;-80
2022/10/07 16:12:29;;;;;;;5.30;2.33;;;14.00;1.00;;;;;;6178325;23;20197;-80
2022/10/07 16:14:55;;;;;;;3.90;2.03;;;13.90;1.00;;;;;;6202284;23;20154;-79
2022/10/07 16:17:20;;;;;;;3.78;2.30;;;13.70;1.00;;;;;;6202153;23;20158;-79
2022/10/07 16:19:46;;;;;;;4.28;2.08;;;13.60;1.00;;;;;;6202493;23;20154;-80
2022/10/07 16:22:12;;;;;;;3.63;2.00;;;13.50;1.00;;;;;;6201772;23;20245;-79
2022/10/07 16:24:39;;;;;;;5.60;1.80;;;13.40;1.00;;;;;;6202127;23;20190;-79
2022/10/07 16:27:05;;;;;;;7.47;2.70;;;13.30;1.00;;;;;;6203437;23;20162;-79
2022/10/07 16:32:15;;;;;;;8.32;4.93;;;13.00;1.00;;;;;;6205325;23;20257;-80
2022/10/07 16:34:43;;;;;;;7.57;3.08;;;12.90;1.00;;;;;;6205456;23;20175;-79
2022/10/07 16:37:09;;;;;;;6.40;3.95;;;12.80;1.00;;;;;;6204092;23;20162;-79
2022/10/07 16:39:35;;;;;;;7.00;3.80;;;12.60;1.00;;;;;;6205649;23;20910;-79
2022/10/07 16:42:01;;;;;;;5.18;2.35;;;12.70;1.00;;;;;;6204112;23;20466;-79
2022/10/07 16:44:26;;;;;;;4.30;2.42;;;12.50;1.00;;;;;;6203991;23;20515;-80
2022/10/07 16:46:56;;;;;;;4.40;1.83;;;12.50;1.00;;;;;;6205541;23;20191;-79
2022/10/07 16:49:24;;;;;;;3.95;2.33;;;12.40;1.00;;;;;;6204768;23;20511;-80
2022/10/07 16:51:50;;;;;;;5.97;1.95;;;12.20;1.00;;;;;;6204098;23;20506;-79
2022/10/07 16:54:16;;;;;;;4.22;2.35;;;12.20;1.00;;;;;;6204091;23;20165;-80
2022/10/07 16:56:45;;;;;;;5.32;2.67;;;12.10;1.00;;;;;;6205411;23;20481;-80
2022/10/07 16:59:13;;;;;;;5.70;2.17;;;12.00;1.00;;;;;;6205345;23;20438;-80
2022/10/07 17:01:39;;;;;;;6.50;3.00;;;11.80;1.00;;;;;;6206153;23;20201;-79
2022/10/07 17:04:05;;;;;;;4.25;2.45;;;11.80;1.00;;;;;;6203868;23;20186;-79
2022/10/07 17:06:32;;;;;;;5.82;2.65;;;11.70;1.00;;;;;;6203732;23;20554;-79
2022/10/07 17:09:03;;;;;;;3.97;2.70;;;11.60;1.00;;;;;;6206050;23;20182;-79
2022/10/07 17:11:31;;;;;;;4.63;3.10;;;11.40;1.00;;;;;;6206474;23;20146;-80
2022/10/07 17:13:59;;;;;;;6.07;2.85;;;11.40;1.00;;;;;;6206555;23;20386;-81
2022/10/07 17:16:27;;;;;;;7.93;2.30;;;11.30;1.00;;;;;;6208098;23;20250;-79
2022/10/07 17:18:53;;;;;;;4.50;1.50;;;11.20;1.00;;;;;;6206485;23;20426;-80
2022/10/07 17:21:19;;;;;;;5.03;2.83;;;11.50;1.00;;;;;;6206629;23;20177;-81
2022/10/07 17:23:48;;;;;;;4.35;2.40;;;11.20;1.00;;;;;;6206494;23;20182;-80
2022/10/07 17:26:15;;;;;;;4.32;2.17;;;11.10;1.00;;;;;;6207032;23;20162;-80
2022/10/07 17:28:40;;;;;;;6.32;2.90;;;10.90;1.00;;;;;;6208393;23;20151;-81
2022/10/07 17:31:09;;;;;;;3.83;2.30;;;11.10;1.00;;;;;;6207645;23;20216;-80
2022/10/07 17:33:38;;;;;;;4.77;2.63;;;10.70;1.00;;;;;;6205805;23;20495;-80
2022/10/07 17:36:06;;;;;;;4.53;2.00;;;11.20;1.00;;;;;;6208236;23;20432;-81
2022/10/07 17:38:43;;;;;;;5.47;2.10;;;10.70;1.00;;;;;;6203479;23;20154;-82
2022/10/07 17:41:30;;;;;;;4.10;2.07;;;10.90;1.00;;;;;;6205899;23;20150;-81
2022/10/07 17:43:58;;;;;;;5.17;1.67;;;10.90;1.00;;;;;;6206142;23;20166;-81
2022/10/07 17:46:26;;;;;;;4.33;1.80;;;10.60;1.00;;;;;;6205711;23;20249;-80
2022/10/07 17:48:54;;;;;;;5.90;1.60;;;10.50;1.00;;;;;;6205460;23;20209;-81
2022/10/07 17:51:23;;;;;;;6.83;2.00;;;10.40;1.00;;;;;;6203958;23;20500;-81
2022/10/07 17:53:49;;;;;;;4.67;1.50;;;10.40;1.00;;;;;;6203860;23;20568;-81
2022/10/07 17:56:15;;;;;;;5.67;1.60;;;10.40;1.00;;;;;;6204286;23;20605;-81
2022/10/07 17:58:44;;;;;;;4.60;1.50;;;10.20;1.00;;;;;;6206312;23;20205;-82
2022/10/07 18:01:13;;;;;;;6.13;1.73;;;10.20;1.00;;;;;;6204235;23;20169;-81
2022/10/07 18:03:40;;;;;;;6.57;1.60;;;10.20;1.00;;;;;;6204115;23;20189;-81
2022/10/07 18:06:06;;;;;;;4.67;1.53;;;10.20;1.00;;;;;;6205720;23;20157;-83
2022/10/07 18:08:34;;;;;;;4.43;1.33;;;10.20;1.00;;;;;;6204423;23;20165;-81
2022/10/07 18:11:00;;;;;;;5.27;1.80;;;10.10;1.00;;;;;;6203903;23;20236;-83
2022/10/07 18:16:12;;;;;;;5.77;1.40;;;10.20;1.00;;;;;;6205974;23;20146;-80
2022/10/07 18:18:42;;;;;;;4.83;1.40;;;10.10;1.00;;;;;;6206891;23;20162;-81
2022/10/07 18:21:08;;;;;;;5.53;2.43;;;10.00;1.00;;;;;;6208699;23;20498;-82
2022/10/07 18:23:34;;;;;;;4.80;1.90;;;10.00;1.00;;;;;;6206994;23;20182;-82
2022/10/07 18:26:04;;;;;;;2.80;1.50;;;10.00;1.00;;;;;;6206697;23;20241;-82
2022/10/07 18:28:34;;;;;;;5.83;1.70;;;10.00;1.00;;;;;;6208634;23;20150;-82
2022/10/07 18:31:01;;;;;;;5.23;1.60;;;10.00;1.00;;;;;;6207298;23;20284;-83
2022/10/07 18:33:30;;;;;;;5.80;1.83;;;10.00;1.00;;;;;;6208976;23;20630;-83
2022/10/07 18:36:06;;;;;;;5.13;1.90;;;10.00;1.00;;;;;;6212688;23;20598;-83
2022/10/07 18:38:41;;;;;;;4.93;1.53;;;10.00;1.00;;;;;;6207016;23;20720;-81
2022/10/07 18:41:09;;;;;;;2.50;1.37;;;10.00;1.00;;;;;;6208459;23;20335;-80
2022/10/07 18:43:35;;;;;;;4.10;1.57;;;10.20;1.00;;;;;;6208038;23;20634;-82
2022/10/07 18:46:10;;;;;;;4.20;1.40;;;10.00;1.00;;;;;;6206857;23;20189;-81
2022/10/07 18:48:38;;;;;;;5.30;1.63;;;9.80;1.00;;;;;;6208217;23;20138;-81
2022/10/07 18:51:04;;;;;;;5.17;2.23;;;9.70;1.00;;;;;;6207150;23;20181;-82
2022/10/07 18:53:32;;;;;;;7.47;2.47;;;9.50;1.00;;;;;;6207135;23;20175;-82
2022/10/07 18:56:03;;;;;;;3.70;1.87;;;9.40;1.00;;;;;;6207558;23;20225;-82
2022/10/07 18:58:36;;;;;;;4.17;1.93;;;9.30;1.00;;;;;;6206346;23;20158;-80
2022/10/07 19:01:10;;;;;;;5.03;1.67;;;9.10;1.00;;;;;;6208245;23;20135;-81
2022/10/07 19:03:36;;;;;;;4.17;1.87;;;9.10;1.00;;;;;;6208076;23;20211;-81
2022/10/07 19:06:10;;;;;;;4.13;1.70;;;9.00;1.00;;;;;;6206887;23;20241;-82
2022/10/07 19:08:36;;;;;;;6.73;2.13;;;9.00;1.00;;;;;;6206668;23;20142;-81
2022/10/07 19:11:07;;;;;;;7.93;2.23;;;9.10;1.00;;;;;;6207823;23;20158;-81
2022/10/07 19:13:50;;;;;;;3.57;1.57;;;9.00;1.00;;;;;;6205221;23;20202;-81
2022/10/07 19:16:23;;;;;;;4.57;2.03;;;9.10;1.00;;;;;;6207067;23;20130;-82
2022/10/07 19:18:51;;;;;;;4.10;1.80;;;9.00;1.00;;;;;;6205050;23;20622;-81
2022/10/07 19:21:18;;;;;;;4.70;1.70;;;9.00;1.00;;;;;;6206963;23;20162;-81
2022/10/07 19:23:48;;;;;;;4.10;1.57;;;9.20;1.00;;;;;;6205284;23;20182;-81
2022/10/07 19:26:16;;;;;;;4.23;1.73;;;9.30;1.00;;;;;;6205596;23;20155;-82
2022/10/07 19:28:44;;;;;;;4.00;1.60;;;9.10;1.00;;;;;;6204742;23;20169;-80
2022/10/07 19:31:17;;;;;;;9.13;2.00;;;9.40;1.00;;;;;;6204804;23;20229;-81
2022/10/07 19:33:45;;;;;;;6.07;1.70;;;9.20;1.00;;;;;;6206225;23;20174;-81
2022/10/07 19:36:13;;;;;;;4.07;1.50;;;9.20;1.00;;;;;;6205353;23;20158;-80
2022/10/07 19:38:43;;;;;;;4.63;1.80;;;9.20;1.00;;;;;;6204665;23;20162;-82
2022/10/07 19:41:10;;;;;;;3.70;1.63;;;9.00;1.00;;;;;;6206592;23;20150;-81
2022/10/07 19:43:37;;;;;;;5.40;1.57;;;9.10;1.00;;;;;;6204267;23;20185;-82
2022/10/07 19:46:05;;;;;;;3.47;1.53;;;9.10;1.00;;;;;;6204543;23;20162;-81
2022/10/07 19:48:31;;;;;;;4.00;2.00;;;8.90;1.00;;;;;;6204518;23;20162;-80
2022/10/07 19:50:59;;;;;;;5.30;1.60;;;9.00;1.00;;;;;;6204492;23;20155;-81
2022/10/07 19:53:34;;;;;;;3.83;1.60;;;8.80;1.00;;;;;;6203867;23;20620;-81
2022/10/07 19:56:09;;;;;;;3.17;1.70;;;8.80;1.00;;;;;;6206223;23;20177;-82
2022/10/07 19:58:34;;;;;;;4.87;1.60;;;8.70;1.00;;;;;;6204789;23;20487;-80
2022/10/07 20:01:09;;;;;;;6.67;1.83;;;8.70;1.00;;;;;;6204661;23;20158;-81
2022/10/07 20:03:35;;;;;;;5.60;1.70;;;8.70;1.00;;;;;;6206607;23;20523;-81
2022/10/07 20:06:06;;;;;;;7.77;2.03;;;8.60;1.00;;;;;;6208217;23;20146;-83
2022/10/07 20:08:39;;;;;;;4.93;2.13;;;8.60;1.00;;;;;;6208388;23;20166;-81
2022/10/07 20:11:05;;;;;;;5.93;2.20;;;8.60;1.00;;;;;;6206674;23;20589;-82
2022/10/07 20:13:33;;;;;;;4.60;2.10;;;8.50;1.00;;;;;;6207785;23;20190;-80
2022/10/07 20:16:13;;;;;;;5.63;1.83;;;8.30;1.00;;;;;;6181329;23;20163;-81
2022/10/07 20:18:40;;;;;;;4.73;2.20;;;8.50;1.00;;;;;;6181525;23;20537;-81
2022/10/07 20:21:10;;;;;;;5.53;1.90;;;8.70;1.00;;;;;;6207798;23;20154;-80
2022/10/07 20:23:38;;;;;;;3.10;1.70;;;8.30;1.00;;;;;;6181363;23;20500;-82
2022/10/07 20:26:05;;;;;;;5.07;2.00;;;8.50;1.00;;;;;;6181276;23;20159;-80
2022/10/07 20:28:31;;;;;;;6.43;1.80;;;8.50;1.00;;;;;;6181570;23;20154;-81
2022/10/07 20:31:03;;;;;;;5.37;1.80;;;8.60;3.70;;;;;;6181346;23;20169;-82
2022/10/07 20:33:30;;;;;;;2.97;1.90;;;8.50;1.00;;;;;;6181443;23;20178;-81
2022/10/07 20:36:00;;;;;;;6.43;1.93;;;8.30;1.00;;;;;;6180994;23;20177;-81
2022/10/07 20:38:26;;;;;;;3.00;1.47;;;8.40;1.70;;;;;;6208355;23;20530;-81
2022/10/07 20:43:36;;;;;;;3.90;1.83;;;8.50;1.00;;;;;;6207272;23;20220;-81
2022/10/07 20:46:01;;;;;;;5.07;2.07;;;8.50;1.00;;;;;;6182051;23;20594;-80
2022/10/07 20:48:28;;;;;;;6.13;2.30;;;8.60;1.00;;;;;;6181022;23;20177;-82
2022/10/07 20:50:54;;;;;;;5.60;1.90;;;8.30;1.00;;;;;;6207753;23;20182;-81
2022/10/07 20:53:19;;;;;;;4.20;1.83;;;8.70;1.90;;;;;;6181207;23;20178;-81
2022/10/07 20:55:45;;;;;;;4.50;1.77;;;8.60;1.00;;;;;;6206967;23;20155;-82
2022/10/07 20:58:13;;;;;;;3.87;1.60;;;8.30;1.00;;;;;;6181175;23;20186;-82
2022/10/07 21:00:39;;;;;;;3.83;2.27;;;8.60;1.00;;;;;;6180793;23;20170;-81
2022/10/07 21:03:05;;;;;;;3.73;1.80;;;8.30;1.00;;;;;;6207623;23;20170;-80
2022/10/07 21:05:30;;;;;;;2.50;1.50;;;8.40;1.00;;;;;;6182710;23;20158;-81
2022/10/07 21:07:56;;;;;;;3.03;1.67;;;8.40;1.00;;;;;;6182938;23;20613;-81
2022/10/07 21:10:21;;;;;;;5.00;1.87;;;8.50;1.00;;;;;;6183136;23;20273;-82
2022/10/07 21:12:47;;;;;;;3.93;1.70;;;8.30;1.00;;;;;;6187297;23;20202;-82
2022/10/07 21:15:12;;;;;;;3.47;1.77;;;8.20;1.00;;;;;;6208149;23;20615;-82
2022/10/07 21:17:39;;;;;;;3.80;1.40;;;8.30;3.10;;;;;;6208097;23;20158;-82
2022/10/07 21:20:06;;;;;;;3.57;1.90;;;8.50;1.00;;;;;;6209744;23;20193;-82
2022/10/07 21:22:32;;;;;;;5.93;2.00;;;8.10;4.90;;;;;;6207716;23;20269;-82